createdAt,value
2023-09-18T00:01:15.598Z,1.75
2023-09-18T00:07:20.623Z,3.70
2023-09-18T00:10:24.546Z,4.90
2023-09-18T00:13:27.186Z,3.00
2023-09-18T00:16:31.329Z,6.55
2023-09-18T00:19:36.733Z,3.85
2023-09-18T00:22:39.319Z,1.80
2023-09-18T00:25:43.549Z,1.67
2023-09-18T00:28:46.236Z,2.28
2023-09-18T00:34:51.738Z,2.00
2023-09-18T00:40:58.047Z,3.40
2023-09-18T00:44:00.606Z,3.05
2023-09-18T00:47:03.263Z,9.68
2023-09-18T00:50:06.963Z,2.63
2023-09-18T00:53:10.325Z,2.30
2023-09-18T00:56:14.338Z,2.10
2023-09-18T00:59:17.419Z,2.95
2023-09-18T01:02:21.760Z,2.25
2023-09-18T01:05:24.464Z,4.90
2023-09-18T01:08:27.066Z,2.50
2023-09-18T01:11:34.985Z,1.77
2023-09-18T01:14:43.741Z,4.55
2023-09-18T01:17:47.273Z,2.88
2023-09-18T01:20:49.920Z,3.28
2023-09-18T01:23:53.743Z,7.15
2023-09-18T01:26:56.298Z,5.25
2023-09-18T01:29:58.814Z,2.58
2023-09-18T01:33:01.610Z,1.92
2023-09-18T01:39:11.288Z,1.80
2023-09-18T01:42:13.827Z,4.80
2023-09-18T01:45:16.422Z,2.13
2023-09-18T01:48:19.029Z,3.13
2023-09-18T01:51:21.614Z,3.65
2023-09-18T01:54:25.731Z,3.65
2023-09-18T01:57:28.369Z,3.40
2023-09-18T02:00:30.981Z,2.25
2023-09-18T02:03:49.248Z,2.80
2023-09-18T02:06:56.675Z,2.42
2023-09-18T02:13:03.172Z,6.28
2023-09-18T02:16:05.819Z,2.25
2023-09-18T02:22:36.010Z,5.25
2023-09-18T02:25:41.304Z,6.22
2023-09-18T02:28:43.816Z,7.97
2023-09-18T02:31:47.173Z,6.00
2023-09-18T02:34:49.723Z,4.18
2023-09-18T02:37:52.300Z,8.70
2023-09-18T02:40:56.155Z,5.32
2023-09-18T02:43:58.758Z,5.35
2023-09-18T02:47:01.340Z,8.88
2023-09-18T02:50:05.351Z,8.95
2023-09-18T02:53:08.476Z,4.82
2023-09-18T02:56:12.404Z,6.22
2023-09-18T02:59:14.969Z,6.57
2023-09-18T03:02:17.590Z,5.95
2023-09-18T03:05:20.274Z,6.65
2023-09-18T03:08:22.854Z,9.77
2023-09-18T03:11:28.444Z,18.20
2023-09-18T03:14:31.142Z,10.95
2023-09-18T03:17:34.565Z,14.27
2023-09-18T03:20:37.254Z,7.35
2023-09-18T03:23:39.926Z,6.50
2023-09-18T03:26:43.846Z,9.32
2023-09-18T03:29:46.353Z,7.68
2023-09-18T03:32:50.346Z,9.25
2023-09-18T03:35:55.773Z,6.72
2023-09-18T03:38:59.255Z,12.60
2023-09-18T03:42:04.154Z,8.55
2023-09-18T03:45:08.865Z,9.40
2023-09-18T03:48:12.633Z,6.35
2023-09-18T03:51:17.278Z,8.13
2023-09-18T03:54:20.142Z,5.50
2023-09-18T03:57:24.102Z,4.75
2023-09-18T04:00:27.055Z,6.68
2023-09-18T04:03:29.817Z,7.57
2023-09-18T04:06:38.411Z,6.88
2023-09-18T04:09:40.976Z,8.98
2023-09-18T04:12:47.106Z,7.55
2023-09-18T04:15:49.745Z,12.48
2023-09-18T04:18:52.682Z,10.50
2023-09-18T04:21:55.399Z,3.97
2023-09-18T04:24:58.048Z,12.88
2023-09-18T04:28:01.909Z,7.30
2023-09-18T04:31:04.541Z,8.15
2023-09-18T04:34:07.766Z,10.80
2023-09-18T04:37:10.344Z,5.90
2023-09-18T04:40:13.440Z,5.95
2023-09-18T04:43:17.461Z,13.27
2023-09-18T04:46:20.059Z,7.90
2023-09-18T04:49:22.896Z,16.15
2023-09-18T04:55:27.786Z,10.53
2023-09-18T04:58:31.740Z,17.13
2023-09-18T05:01:34.354Z,9.38
2023-09-18T05:04:36.953Z,10.70
2023-09-18T05:07:39.530Z,9.38
2023-09-18T05:10:42.080Z,7.75
2023-09-18T05:13:45.937Z,9.75
2023-09-18T05:16:48.620Z,7.47
2023-09-18T05:19:51.190Z,8.25
2023-09-18T05:22:55.061Z,6.13
2023-09-18T05:25:57.576Z,5.90
2023-09-18T05:29:01.441Z,7.22
2023-09-18T05:32:04.997Z,10.02
2023-09-18T05:35:11.102Z,14.43
2023-09-18T05:38:15.350Z,15.38
2023-09-18T05:41:18.014Z,13.30
2023-09-18T05:44:22.002Z,5.47
2023-09-18T05:47:25.047Z,10.32
2023-09-18T05:50:30.403Z,7.30
2023-09-18T05:53:35.826Z,7.25
2023-09-18T05:56:39.351Z,13.60
2023-09-18T05:59:44.828Z,11.02
2023-09-18T06:02:47.734Z,7.72
2023-09-18T06:08:54.885Z,9.82
2023-09-18T06:11:57.745Z,6.20
2023-09-18T06:15:01.748Z,9.43
2023-09-18T06:18:05.504Z,6.05
2023-09-18T06:21:08.230Z,9.48
2023-09-18T06:24:10.851Z,7.63
2023-09-18T06:27:13.364Z,6.20
2023-09-18T06:30:17.547Z,7.20
2023-09-18T06:33:20.174Z,11.48
2023-09-18T06:36:22.679Z,4.85
2023-09-18T06:39:27.151Z,7.20
2023-09-18T06:42:30.512Z,12.05
2023-09-18T06:45:34.849Z,8.70
2023-09-18T06:48:37.446Z,5.65
2023-09-18T06:51:43.549Z,6.20
2023-09-18T06:54:47.090Z,7.00
2023-09-18T06:57:51.669Z,9.20
2023-09-18T07:00:55.528Z,13.32
2023-09-18T07:03:58.699Z,7.57
2023-09-18T07:07:03.247Z,8.52
2023-09-18T07:10:06.681Z,7.15
2023-09-18T07:13:09.973Z,4.82
2023-09-18T07:16:14.552Z,5.38
2023-09-18T07:19:18.386Z,6.38
2023-09-18T07:22:21.201Z,7.88
2023-09-18T07:25:23.789Z,5.72
2023-09-18T07:28:26.404Z,7.07
2023-09-18T07:31:30.344Z,4.00
2023-09-18T07:34:33.221Z,3.55
2023-09-18T07:43:42.842Z,8.00
2023-09-18T07:46:46.725Z,3.75
2023-09-18T07:49:49.858Z,5.40
2023-09-18T07:52:52.434Z,2.58
2023-09-18T07:55:58.491Z,4.90
2023-09-18T07:59:01.114Z,6.88
2023-09-18T08:02:05.561Z,2.50
2023-09-18T08:05:09.617Z,5.10
2023-09-18T08:08:12.278Z,4.85
2023-09-18T08:11:14.941Z,4.97
2023-09-18T08:14:18.232Z,3.50
2023-09-18T08:17:22.161Z,4.55
2023-09-18T08:20:24.942Z,3.92
2023-09-18T08:26:29.898Z,2.67
2023-09-18T08:29:32.539Z,5.43
2023-09-18T08:35:40.606Z,1.48
2023-09-18T08:38:45.257Z,5.03
2023-09-18T08:41:51.886Z,1.35
2023-09-18T08:44:56.328Z,2.67
2023-09-18T08:48:00.837Z,3.35
2023-09-18T08:51:05.690Z,3.90
2023-09-18T08:54:08.358Z,3.22
2023-09-18T08:57:11.001Z,7.65
2023-09-18T09:00:17.679Z,3.83
2023-09-18T09:03:24.503Z,6.60
2023-09-18T09:06:27.338Z,6.25
2023-09-18T09:09:30.827Z,3.28
2023-09-18T09:12:49.871Z,10.73
2023-09-18T09:15:54.733Z,5.45
2023-09-18T09:18:58.812Z,6.35
2023-09-18T09:22:01.969Z,5.95
2023-09-18T09:25:05.190Z,5.90
2023-09-18T09:28:09.989Z,2.85
2023-09-18T09:31:12.986Z,4.82
2023-09-18T09:34:26.993Z,4.75
2023-09-18T09:37:32.285Z,4.10
2023-09-18T09:40:36.311Z,4.63
2023-09-18T09:43:38.886Z,4.30
2023-09-18T09:46:47.835Z,7.78
2023-09-18T09:49:51.746Z,4.82
2023-09-18T09:52:55.949Z,1.58
2023-09-18T09:55:58.627Z,1.85
2023-09-18T09:59:09.006Z,7.30
2023-09-18T10:02:13.480Z,4.63
2023-09-18T10:05:19.294Z,4.40
2023-09-18T10:08:24.567Z,4.63
2023-09-18T10:11:28.433Z,2.58
2023-09-18T10:14:40.481Z,3.10
2023-09-18T10:17:51.366Z,2.08
2023-09-18T10:20:59.991Z,3.65
2023-09-18T10:24:07.788Z,5.05
2023-09-18T10:27:12.438Z,5.82
2023-09-18T10:30:16.867Z,3.35
2023-09-18T10:33:19.596Z,1.58
2023-09-18T10:36:23.621Z,1.45
2023-09-18T10:39:28.185Z,5.35
2023-09-18T10:42:32.095Z,5.13
2023-09-18T10:45:34.725Z,2.38
2023-09-18T10:48:37.541Z,6.68
2023-09-18T10:54:46.540Z,2.72
2023-09-18T10:57:53.311Z,9.98
2023-09-18T11:00:58.601Z,6.13
2023-09-18T11:04:02.998Z,2.10
2023-09-18T11:07:07.483Z,3.03
2023-09-18T11:10:28.700Z,6.35
2023-09-18T11:13:31.352Z,4.28
2023-09-18T11:16:40.290Z,2.90
2023-09-18T11:19:44.124Z,2.47
2023-09-18T11:22:51.996Z,3.42
2023-09-18T11:25:55.230Z,1.00
2023-09-18T11:28:58.698Z,3.05
2023-09-18T11:32:05.487Z,1.63
2023-09-18T11:35:09.860Z,3.13
2023-09-18T11:38:17.239Z,12.90
2023-09-18T11:41:26.412Z,3.47
2023-09-18T11:44:41.955Z,5.03
2023-09-18T11:47:47.871Z,11.15
2023-09-18T11:50:52.122Z,5.10
2023-09-18T11:53:57.902Z,6.78
2023-09-18T11:57:05.786Z,2.33
2023-09-18T12:00:23.350Z,2.58
2023-09-18T12:03:29.282Z,2.17
2023-09-18T12:06:32.221Z,1.38
2023-09-18T19:06:01.139Z,6.75
2023-09-18T19:09:05.544Z,9.73
2023-09-18T19:12:08.977Z,11.02
2023-09-18T19:15:12.091Z,10.30
2023-09-18T19:18:14.766Z,7.38
2023-09-18T19:21:18.727Z,7.15
2023-09-18T19:24:21.329Z,4.72
2023-09-18T19:27:24.501Z,4.00
2023-09-18T19:30:27.407Z,8.98
2023-09-18T19:33:30.074Z,3.88
2023-09-18T19:36:34.027Z,3.47
2023-09-18T19:39:36.758Z,6.32
2023-09-18T19:45:41.865Z,2.50
2023-09-18T19:48:44.519Z,2.28
2023-09-18T19:51:48.692Z,2.88
2023-09-18T19:54:51.359Z,1.80
2023-09-18T19:57:54.733Z,3.25
2023-09-18T20:00:57.515Z,2.60
2023-09-18T20:10:12.215Z,1.63
2023-09-18T20:13:14.797Z,2.20
2023-09-18T20:16:17.415Z,1.63
2023-09-18T20:19:20.942Z,4.78
2023-09-18T20:22:25.105Z,3.20
2023-09-18T20:25:28.150Z,1.45
2023-09-18T20:28:31.303Z,6.32
2023-09-18T20:31:33.922Z,5.78
2023-09-18T20:34:36.569Z,2.88
2023-09-18T20:37:40.495Z,3.25
2023-09-18T20:40:44.705Z,1.63
2023-09-18T20:43:47.257Z,1.55
2023-09-18T20:46:49.817Z,2.53
2023-09-18T20:49:54.488Z,1.90
2023-09-18T20:52:58.398Z,1.42
2023-09-18T20:56:00.963Z,2.17
2023-09-18T20:59:05.890Z,1.60
2023-09-18T21:02:11.638Z,1.50
2023-09-18T21:05:14.497Z,1.20
2023-09-18T21:08:18.415Z,1.63
2023-09-18T21:11:21.490Z,5.07
2023-09-18T21:14:24.152Z,3.63
2023-09-18T21:17:26.962Z,0.82
2023-09-18T21:23:33.466Z,3.80
2023-09-18T21:26:36.062Z,5.97
2023-09-18T21:29:38.638Z,4.38
2023-09-18T21:32:41.352Z,1.05
2023-09-18T21:38:49.489Z,3.30
2023-09-18T21:41:52.083Z,1.45
2023-09-18T21:44:54.616Z,1.63
2023-09-18T21:47:57.319Z,3.72
2023-09-18T21:54:05.027Z,0.90
2023-09-18T21:57:07.725Z,2.33
2023-09-18T22:00:29.125Z,4.32
2023-09-18T22:03:38.135Z,3.45
2023-09-18T22:06:41.004Z,1.60
2023-09-18T22:09:47.458Z,0.98
2023-09-18T22:12:50.012Z,3.05
2023-09-18T22:15:52.638Z,1.35
2023-09-18T22:18:55.288Z,2.40
2023-09-18T22:21:58.037Z,1.42
2023-09-18T22:25:02.130Z,2.10
2023-09-18T22:28:05.818Z,0.80
2023-09-18T22:31:09.092Z,0.55
2023-09-18T22:34:11.724Z,0.95
2023-09-18T22:37:14.266Z,0.50
2023-09-18T22:40:16.760Z,1.42
2023-09-18T22:43:56.553Z,0.82
2023-09-18T22:47:37.157Z,1.33
2023-09-18T22:51:17.497Z,2.33
2023-09-18T22:54:19.848Z,2.03
2023-09-18T22:57:25.693Z,3.75
2023-09-18T23:00:30.127Z,1.25
2023-09-18T23:03:33.408Z,0.60
2023-09-18T23:06:36.020Z,2.25
2023-09-18T23:09:38.579Z,2.67
2023-09-18T23:12:43.696Z,0.63
2023-09-18T23:15:48.498Z,0.70
2023-09-18T23:18:51.951Z,1.13
2023-09-18T23:21:55.754Z,2.85
2023-09-18T23:24:58.484Z,0.63
2023-09-18T23:28:04.125Z,2.85
2023-09-18T23:31:07.633Z,0.93
2023-09-18T23:34:13.144Z,2.15
2023-09-18T23:37:15.806Z,1.52
2023-09-18T23:40:18.919Z,2.75
2023-09-18T23:43:25.636Z,1.38
2023-09-18T23:46:28.859Z,0.75
2023-09-18T23:49:32.761Z,0.85
2023-09-18T23:52:35.511Z,0.90
2023-09-18T23:55:38.671Z,2.88
2023-09-18T23:58:43.037Z,0.70
